Time;durP1;ratioP1;P1;durP2;ratioP2;P2;SDS_P1;SDS_P2;PMS_P1;PMS_P2;Temp;Humidity;BMP_temperature;BMP_pressure;BME280_temperature;BME280_humidity;BME280_pressure;Samples;Min_cycle;Max_cycle;Signal;HPM_P1;HPM_P2
2023/12/05 00:00:15;;;;;;;1.17;1.15;;;;;;;-5.87;85.17;100673.22;5066700;28;20021;-69
2023/12/05 00:02:40;;;;;;;3.75;3.55;;;;;;;-5.92;85.17;100670.38;5066144;28;20341;-68
2023/12/05 00:05:09;;;;;;;1.77;1.25;;;;;;;-5.96;85.03;100668.47;5066427;28;20030;-69
2023/12/05 00:07:34;;;;;;;0.60;0.60;;;;;;;-6.01;85.01;100659.69;5048525;28;20066;-68
2023/12/05 00:10:00;;;;;;;0.93;0.93;;;;;;;-6.01;84.91;100668.19;5065955;28;20044;-68
2023/12/05 00:12:26;;;;;;;1.60;1.50;;;;;;;-6.02;84.87;100671.47;5066212;28;20017;-68
2023/12/05 00:14:51;;;;;;;6.57;2.05;;;;;;;-6.06;84.85;100669.56;5065992;28;20020;-68
2023/12/05 00:17:17;;;;;;;1.90;1.80;;;;;;;-6.08;84.78;100665.16;5066450;28;20021;-68
2023/12/05 00:19:42;;;;;;;0.60;0.60;;;;;;;-6.12;84.91;100666.66;5066246;28;20104;-67
2023/12/05 00:22:07;;;;;;;1.25;1.25;;;;;;;-6.12;84.68;100675.09;5065918;28;20063;-69
2023/12/05 00:24:33;;;;;;;0.60;0.60;;;;;;;-6.18;84.79;100672.16;5066340;28;20021;-68
2023/12/05 00:26:58;;;;;;;0.60;0.60;;;;;;;-6.20;84.52;100680.44;5065838;28;20032;-68
2023/12/05 00:29:23;;;;;;;1.17;1.05;;;;;;;-6.28;84.22;100670.72;5066046;28;20111;-68
2023/12/05 00:31:49;;;;;;;0.60;0.60;;;;;;;-6.25;84.54;100677.63;5065928;28;20028;-68
2023/12/05 00:34:14;;;;;;;0.95;0.95;;;;;;;-6.28;84.50;100683.38;5065975;28;20024;-69
2023/12/05 00:36:40;;;;;;;2.97;2.78;;;;;;;-6.29;84.57;100684.13;5065984;28;20032;-68
2023/12/05 00:39:05;;;;;;;0.98;0.95;;;;;;;-6.30;84.55;100679.84;5065590;28;20444;-68
2023/12/05 00:41:30;;;;;;;0.60;0.60;;;;;;;-6.32;84.59;100677.97;5065636;28;20032;-68
2023/12/05 00:43:56;;;;;;;2.35;1.95;;;;;;;-6.41;84.52;100661.47;5065562;28;20410;-68
2023/12/05 00:46:22;;;;;;;2.17;2.08;;;;;;;-6.33;84.61;100674.59;5065831;28;20024;-68
2023/12/05 00:48:47;;;;;;;0.77;0.77;;;;;;;-6.35;84.56;100671.97;5065583;28;20028;-67
2023/12/05 00:51:13;;;;;;;1.08;1.02;;;;;;;-6.35;84.63;100671.97;5065399;28;20078;-68
2023/12/05 00:53:38;;;;;;;0.98;0.98;;;;;;;-6.35;84.38;100664.41;5047328;28;20047;-68
2023/12/05 00:56:09;;;;;;;3.85;3.55;;;;;;;-6.40;84.53;100663.22;5065455;28;20032;-67
2023/12/05 00:58:34;;;;;;;2.28;1.58;;;;;;;-6.33;84.67;100668.66;5065147;28;20049;-68
2023/12/05 01:00:59;;;;;;;0.82;0.82;;;;;;;-6.34;84.60;100670.31;5065280;28;20036;-68
2023/12/05 01:03:24;;;;;;;0.85;0.85;;;;;;;-6.33;84.74;100677.13;5065201;28;20124;-68
2023/12/05 01:05:50;;;;;;;1.50;0.85;;;;;;;-6.27;84.90;100669.06;5047244;28;20021;-68
2023/12/05 01:08:15;;;;;;;0.88;0.88;;;;;;;-6.21;85.00;100674.50;5065010;28;20090;-67
2023/12/05 01:10:41;;;;;;;1.17;1.17;;;;;;;-6.16;85.07;100678.22;5065352;28;20071;-68
2023/12/05 01:13:06;;;;;;;0.93;0.93;;;;;;;-6.08;85.15;100682.88;5064820;28;20024;-68
2023/12/05 01:15:31;;;;;;;0.90;0.90;;;;;;;-6.08;85.16;100668.56;5064685;28;20021;-68
2023/12/05 01:17:57;;;;;;;0.60;0.60;;;;;;;-5.97;85.21;100682.75;5065101;28;20032;-68
2023/12/05 01:20:22;;;;;;;13.77;4.00;;;;;;;-5.95;85.00;100679.44;5065083;28;20025;-68
2023/12/05 01:22:47;;;;;;;1.30;1.25;;;;;;;-5.94;85.11;100669.41;5064966;28;20436;-68
2023/12/05 01:25:13;;;;;;;0.60;0.60;;;;;;;-5.75;84.32;100678.16;5065049;28;20021;-68
2023/12/05 01:27:38;;;;;;;0.65;0.65;;;;;;;-5.95;84.71;100664.25;5065048;28;20017;-68
2023/12/05 01:30:04;;;;;;;0.60;0.60;;;;;;;-5.90;85.02;100675.53;5065008;28;20474;-69
2023/12/05 01:32:30;;;;;;;0.60;0.60;;;;;;;-5.89;84.98;100673.13;5064661;28;20068;-69
2023/12/05 01:34:56;;;;;;;1.98;1.13;;;;;;;-5.92;85.15;100674.56;5063565;28;20020;-69
2023/12/05 01:37:22;;;;;;;0.60;0.60;;;;;;;-5.95;85.37;100671.84;5064479;28;20051;-68
2023/12/05 01:39:47;;;;;;;1.30;1.23;;;;;;;-5.91;85.46;100682.25;5064718;28;20025;-68
2023/12/05 01:42:13;;;;;;;1.05;1.05;;;;;;;-5.89;85.36;100679.81;5046967;28;20035;-69
2023/12/05 01:44:38;;;;;;;1.17;1.13;;;;;;;-5.87;85.42;100669.03;5046685;28;20029;-68
2023/12/05 01:47:04;;;;;;;0.60;0.60;;;;;;;-5.92;85.78;100672.91;5064622;28;20042;-68
2023/12/05 01:49:33;;;;;;;0.70;0.70;;;;;;;-5.86;85.57;100680.88;5064426;28;20029;-69
2023/12/05 01:51:59;;;;;;;2.85;1.38;;;;;;;-5.90;85.47;100662.91;5046700;28;20049;-68
2023/12/05 01:54:26;;;;;;;0.90;0.90;;;;;;;-5.84;85.38;100678.47;5064593;28;20025;-68
2023/12/05 01:56:54;;;;;;;0.60;0.60;;;;;;;-5.75;84.99;100681.56;5064643;28;20025;-68
2023/12/05 01:59:19;;;;;;;1.77;1.67;;;;;;;-5.79;85.31;100666.97;5046736;28;20501;-67
2023/12/05 02:01:45;;;;;;;1.35;1.30;;;;;;;-5.92;85.19;100655.22;5064442;28;20025;-67
2023/12/05 02:04:10;;;;;;;0.80;0.80;;;;;;;-5.86;85.59;100673.31;5046627;28;20032;-67
2023/12/05 02:06:36;;;;;;;0.70;0.70;;;;;;;-5.83;85.88;100679.34;5064703;28;20017;-68
2023/12/05 02:09:03;;;;;;;0.60;0.60;;;;;;;-5.80;85.80;100677.88;5064983;28;20025;-67
2023/12/05 02:11:28;;;;;;;3.15;1.42;;;;;;;-5.82;85.78;100681.09;5050593;28;20484;-67
2023/12/05 02:13:53;;;;;;;0.68;0.68;;;;;;;-6.01;85.88;100655.53;5068467;28;20020;-68
2023/12/05 02:16:34;;;;;;;0.60;0.60;;;;;;;-5.83;85.98;100676.81;5068445;28;20028;-68
2023/12/05 02:19:23;;;;;;;0.87;0.87;;;;;;;-5.80;85.83;100682.94;5068779;28;20024;-67
2023/12/05 02:21:52;;;;;;;0.93;0.93;;;;;;;-5.86;85.75;100680.88;5050095;28;20055;-68
2023/12/05 02:24:33;;;;;;;0.60;0.60;;;;;;;-5.84;85.86;100678.47;5068453;28;20020;-69
2023/12/05 02:27:04;;;;;;;0.60;0.60;;;;;;;-5.83;85.87;100669.22;5068273;28;20021;-68
2023/12/05 02:29:29;;;;;;;0.63;0.63;;;;;;;-5.83;85.90;100675.13;5068165;28;20029;-68
2023/12/05 02:31:55;;;;;;;2.08;1.55;;;;;;;-5.81;85.71;100663.47;5068405;28;20027;-68
2023/12/05 02:34:20;;;;;;;3.67;3.33;;;;;;;-5.80;85.79;100655.13;5068167;28;20056;-69
2023/12/05 02:37:04;;;;;;;0.60;0.60;;;;;;;-5.76;85.75;100666.28;5068297;28;20051;-68
2023/12/05 02:39:47;;;;;;;3.22;2.47;;;;;;;-5.82;85.79;100665.91;5050017;28;20029;-68
2023/12/05 02:42:14;;;;;;;1.00;1.00;;;;;;;-5.80;85.74;100666.88;5067891;28;20040;-68
2023/12/05 02:44:42;;;;;;;2.85;1.23;;;;;;;-5.85;85.96;100654.81;5067704;28;20082;-68
2023/12/05 02:47:12;;;;;;;0.60;0.60;;;;;;;-5.82;85.98;100659.19;5067843;28;20055;-68
2023/12/05 02:49:37;;;;;;;1.17;1.17;;;;;;;-5.85;86.27;100656.50;5067898;28;20199;-68
2023/12/05 02:52:03;;;;;;;0.63;0.63;;;;;;;-5.89;86.18;100636.81;5067844;28;20017;-68
2023/12/05 02:54:28;;;;;;;0.88;0.88;;;;;;;-5.82;85.99;100656.69;5067591;28;20025;-68
2023/12/05 02:56:54;;;;;;;0.80;0.80;;;;;;;-5.87;85.94;100640.34;5067583;28;20087;-68
2023/12/05 02:59:19;;;;;;;1.25;1.25;;;;;;;-5.92;85.98;100632.47;5067580;28;20093;-69
2023/12/05 03:01:44;;;;;;;0.63;0.63;;;;;;;-5.85;85.72;100647.22;5067530;28;20025;-68
2023/12/05 03:04:09;;;;;;;2.05;1.95;;;;;;;-5.93;85.82;100639.94;5067647;28;20021;-69
2023/12/05 03:06:35;;;;;;;0.60;0.60;;;;;;;-5.92;85.79;100645.09;5067804;28;20031;-68
2023/12/05 03:09:03;;;;;;;0.60;0.60;;;;;;;-5.95;85.69;100646.56;5067478;28;20048;-69
2023/12/05 03:11:28;;;;;;;0.85;0.85;;;;;;;-5.97;85.53;100644.81;5067302;28;20021;-68
2023/12/05 03:13:54;;;;;;;0.80;0.80;;;;;;;-5.95;85.67;100649.09;5067558;28;20082;-68
2023/12/05 03:16:19;;;;;;;1.98;1.88;;;;;;;-6.00;85.55;100642.09;5067434;28;20119;-68
2023/12/05 03:18:45;;;;;;;0.60;0.60;;;;;;;-6.04;85.59;100639.31;5067365;28;20284;-67
2023/12/05 03:21:20;;;;;;;0.93;0.93;;;;;;;-6.05;85.58;100638.44;5048907;28;20099;-67
2023/12/05 03:23:45;;;;;;;1.45;1.35;;;;;;;-6.01;85.67;100644.53;5067070;28;20088;-68
2023/12/05 03:26:21;;;;;;;0.60;0.60;;;;;;;-6.10;85.40;100638.16;5049538;28;20027;-68
2023/12/05 03:28:51;;;;;;;0.88;0.88;;;;;;;-6.12;85.61;100636.31;5067283;28;20025;-67
2023/12/05 03:31:17;;;;;;;1.05;1.05;;;;;;;-6.07;85.52;100644.19;5066915;28;20024;-68
2023/12/05 03:33:43;;;;;;;0.60;0.60;;;;;;;-6.08;85.58;100653.41;5049252;28;20070;-67
2023/12/05 03:36:09;;;;;;;1.08;1.08;;;;;;;-6.14;85.55;100637.88;5067180;28;20028;-68
2023/12/05 03:38:37;;;;;;;0.60;0.60;;;;;;;-6.10;85.65;100644.84;5066914;28;20020;-68
2023/12/05 03:41:02;;;;;;;0.60;0.60;;;;;;;-6.11;85.62;100643.09;5066731;28;20082;-67
2023/12/05 03:43:28;;;;;;;1.05;1.05;;;;;;;-6.16;85.56;100640.28;5066709;28;20025;-68
2023/12/05 03:45:53;;;;;;;1.35;1.27;;;;;;;-6.18;85.51;100643.50;5066941;28;20028;-67
2023/12/05 03:48:18;;;;;;;1.00;1.00;;;;;;;-6.22;85.47;100643.31;5066679;28;20052;-67
2023/12/05 03:50:44;;;;;;;0.70;0.70;;;;;;;-6.27;85.43;100631.16;5066692;28;20056;-67
2023/12/05 03:53:09;;;;;;;0.98;0.98;;;;;;;-6.26;85.50;100636.31;5066427;28;20032;-65
2023/12/05 03:55:35;;;;;;;1.98;1.88;;;;;;;-6.26;85.30;100645.56;5066338;28;20021;-67
2023/12/05 03:58:01;;;;;;;0.75;0.75;;;;;;;-6.34;85.24;100637.47;5048462;28;20037;-68
2023/12/05 04:00:26;;;;;;;3.72;3.22;;;;;;;-6.32;85.19;100645.13;5048573;28;20041;-67
2023/12/05 04:02:52;;;;;;;0.60;0.60;;;;;;;-6.33;85.21;100635.81;5048374;28;20408;-67
2023/12/05 04:05:18;;;;;;;2.55;2.35;;;;;;;-6.38;85.12;100641.47;5066524;28;20103;-67
2023/12/05 04:07:45;;;;;;;0.60;0.60;;;;;;;-6.45;85.15;100626.66;5066538;28;20021;-67
2023/12/05 04:10:10;;;;;;;2.45;2.35;;;;;;;-6.47;84.89;100639.19;5048096;28;20029;-67
2023/12/05 04:12:35;;;;;;;0.70;0.70;;;;;;;-6.54;84.89;100639.59;5048358;28;20025;-67
2023/12/05 04:15:01;;;;;;;0.60;0.60;;;;;;;-6.55;84.97;100645.41;5066563;28;20497;-68
2023/12/05 04:17:26;;;;;;;1.00;1.00;;;;;;;-6.60;84.91;100635.00;5066246;28;20108;-67
2023/12/05 04:19:52;;;;;;;0.70;0.70;;;;;;;-6.65;84.79;100628.81;5048223;28;20074;-67
2023/12/05 04:22:17;;;;;;;1.70;1.60;;;;;;;-6.62;84.71;100645.78;5066212;28;20453;-67
2023/12/05 04:24:42;;;;;;;0.68;0.68;;;;;;;-6.79;84.81;100610.22;5066102;28;20033;-67
2023/12/05 04:27:08;;;;;;;0.77;0.77;;;;;;;-6.65;84.73;100645.59;5066162;28;20028;-67
2023/12/05 04:29:33;;;;;;;1.20;0.88;;;;;;;-6.72;84.72;100632.56;5066167;28;20412;-67
2023/12/05 04:32:01;;;;;;;0.60;0.60;;;;;;;-6.72;84.79;100642.66;5047541;28;20025;-67
2023/12/05 04:34:27;;;;;;;1.30;0.95;;;;;;;-6.68;84.62;100642.88;5066297;28;20021;-67
2023/12/05 04:36:52;;;;;;;0.70;0.70;;;;;;;-6.70;84.92;100649.47;5066104;28;20035;-67
2023/12/05 04:39:17;;;;;;;0.70;0.70;;;;;;;-6.72;84.47;100637.63;5065687;28;20031;-67
2023/12/05 04:41:43;;;;;;;1.15;1.10;;;;;;;-6.70;84.35;100647.81;5065831;28;20063;-66
2023/12/05 04:44:08;;;;;;;0.70;0.70;;;;;;;-6.72;84.67;100652.78;5065906;28;20040;-66
2023/12/05 04:46:37;;;;;;;0.98;0.98;;;;;;;-6.76;84.62;100648.31;5065635;28;20021;-66
2023/12/05 04:49:03;;;;;;;1.10;1.10;;;;;;;-6.75;84.57;100646.63;5065506;28;20028;-67
2023/12/05 04:51:28;;;;;;;0.95;0.80;;;;;;;-6.67;84.62;100654.72;5065562;28;20028;-66
2023/12/05 04:53:54;;;;;;;1.00;1.00;;;;;;;-6.68;84.64;100645.41;5047627;28;20013;-66
2023/12/05 04:56:19;;;;;;;1.35;1.25;;;;;;;-6.60;84.86;100651.84;5065546;28;20033;-66
2023/12/05 04:58:45;;;;;;;0.73;0.73;;;;;;;-6.62;84.94;100646.69;5047159;28;20045;-66
2023/12/05 05:01:10;;;;;;;2.05;1.70;;;;;;;-6.53;84.85;100656.50;5065507;28;20030;-67
2023/12/05 05:03:36;;;;;;;0.75;0.75;;;;;;;-6.49;85.06;100655.94;5065299;28;20013;-67
2023/12/05 05:06:01;;;;;;;0.70;0.70;;;;;;;-6.57;84.89;100641.94;5047544;28;20032;-70
2023/12/05 05:08:28;;;;;;;0.60;0.60;;;;;;;-6.55;84.75;100649.59;5047964;28;20053;-69
2023/12/05 05:10:53;;;;;;;2.35;2.25;;;;;;;-6.55;84.81;100650.47;5065400;28;20078;-68
2023/12/05 05:13:18;;;;;;;1.17;1.10;;;;;;;-6.54;84.81;100657.28;5065704;28;20033;-70
2023/12/05 05:15:44;;;;;;;1.40;1.30;;;;;;;-6.57;84.69;100641.94;5065311;28;20031;-69
2023/12/05 05:18:09;;;;;;;0.70;0.70;;;;;;;-6.50;84.86;100654.16;5065121;28;20025;-69
2023/12/05 05:20:34;;;;;;;0.50;0.50;;;;;;;-6.52;84.69;100644.75;5064839;28;20017;-70
2023/12/05 05:23:00;;;;;;;1.40;1.30;;;;;;;-6.51;84.67;100660.00;5065175;28;20465;-69
2023/12/05 05:25:25;;;;;;;2.50;1.88;;;;;;;-6.63;84.74;100631.44;5064993;28;20083;-69
2023/12/05 05:27:51;;;;;;;0.60;0.60;;;;;;;-6.52;84.82;100650.69;5047003;28;20059;-67
2023/12/05 05:30:16;;;;;;;0.50;0.50;;;;;;;-6.54;84.66;100656.41;5065312;28;20021;-64
2023/12/05 05:32:42;;;;;;;0.60;0.60;;;;;;;-6.48;84.67;100657.66;5064819;28;20021;-66
2023/12/05 05:35:07;;;;;;;0.70;0.70;;;;;;;-6.52;84.77;100655.75;5046960;28;20051;-66
2023/12/05 05:37:33;;;;;;;0.70;0.70;;;;;;;-6.50;84.89;100664.28;5064905;28;20076;-67
2023/12/05 05:39:58;;;;;;;0.50;0.50;;;;;;;-6.50;84.87;100659.22;5064579;28;20021;-67
2023/12/05 05:42:23;;;;;;;0.70;0.70;;;;;;;-6.52;84.94;100659.91;5064838;28;20025;-67
2023/12/05 05:44:49;;;;;;;0.60;0.60;;;;;;;-6.45;84.76;100666.25;5064104;28;20025;-66
2023/12/05 05:47:14;;;;;;;0.60;0.60;;;;;;;-6.43;84.86;100670.59;5047098;28;20068;-67
2023/12/05 05:49:39;;;;;;;0.60;0.60;;;;;;;-6.46;84.86;100652.72;5064831;28;20108;-66
2023/12/05 05:52:05;;;;;;;0.80;0.80;;;;;;;-6.42;84.77;100658.84;5064371;28;20032;-65
2023/12/05 05:54:30;;;;;;;0.70;0.70;;;;;;;-6.40;85.19;100664.84;5064333;28;20080;-65
2023/12/05 05:56:56;;;;;;;0.90;0.90;;;;;;;-6.36;85.14;100657.56;5064652;28;20080;-66
2023/12/05 05:59:21;;;;;;;1.00;1.00;;;;;;;-6.36;85.17;100651.66;5063530;28;20033;-66
2023/12/05 06:01:47;;;;;;;0.60;0.60;;;;;;;-6.25;85.08;100663.34;5064680;28;20120;-66
2023/12/05 06:04:13;;;;;;;0.70;0.70;;;;;;;-6.27;84.83;100664.88;5065096;28;20033;-66
2023/12/05 06:06:38;;;;;;;1.15;1.15;;;;;;;-6.22;85.19;100665.19;5063546;28;20079;-66
2023/12/05 06:09:04;;;;;;;0.70;0.70;;;;;;;-6.16;85.18;100663.03;5064675;28;20017;-66
2023/12/05 06:11:29;;;;;;;0.50;0.50;;;;;;;-6.19;84.95;100651.84;5064483;28;20048;-66
2023/12/05 06:13:55;;;;;;;0.50;0.50;;;;;;;-6.14;84.92;100665.66;5064329;28;20043;-66
2023/12/05 06:16:21;;;;;;;0.98;0.77;;;;;;;-6.12;84.94;100671.69;5046644;28;20021;-66
2023/12/05 06:18:46;;;;;;;0.60;0.60;;;;;;;-6.16;84.73;100669.75;5046769;28;20035;-67
2023/12/05 06:21:12;;;;;;;0.68;0.68;;;;;;;-6.15;84.86;100679.09;5064598;28;20108;-67
2023/12/05 06:23:38;;;;;;;0.70;0.70;;;;;;;-6.13;84.91;100669.94;5063985;28;20040;-67
2023/12/05 06:26:04;;;;;;;1.05;1.05;;;;;;;-6.11;84.86;100674.31;5064487;28;20028;-65
2023/12/05 06:28:30;;;;;;;0.65;0.65;;;;;;;-6.14;84.84;100666.56;5046646;28;20037;-66
2023/12/05 06:30:55;;;;;;;2.80;2.58;;;;;;;-6.07;84.97;100675.38;5046701;28;20063;-68
2023/12/05 06:33:21;;;;;;;1.15;1.15;;;;;;;-6.11;85.07;100678.50;5064604;28;20073;-67
2023/12/05 06:35:46;;;;;;;0.90;0.90;;;;;;;-6.06;85.28;100672.09;5064572;28;20032;-68
2023/12/05 06:38:11;;;;;;;5.10;1.70;;;;;;;-6.06;84.96;100666.16;5064415;28;20053;-71
2023/12/05 06:40:37;;;;;;;0.70;0.70;;;;;;;-6.07;85.13;100665.25;5064347;28;20473;-70
2023/12/05 06:43:02;;;;;;;7.78;2.17;;;;;;;-6.05;84.90;100670.44;5046106;28;20036;-71
2023/12/05 06:45:28;;;;;;;4.07;1.58;;;;;;;-6.01;84.93;100683.34;5064086;28;20028;-71
2023/12/05 06:47:53;;;;;;;0.60;0.60;;;;;;;-6.06;84.89;100671.19;5046377;28;20021;-70
2023/12/05 06:50:18;;;;;;;0.70;0.70;;;;;;;-5.97;85.05;100690.34;5064219;28;20088;-70
2023/12/05 06:52:44;;;;;;;0.80;0.80;;;;;;;-5.98;84.84;100683.53;5062581;28;20024;-70
2023/12/05 06:55:09;;;;;;;0.60;0.60;;;;;;;-5.93;84.96;100698.09;5064995;28;20031;-70
2023/12/05 06:57:35;;;;;;;0.73;0.73;;;;;;;-5.97;84.62;100689.44;5067747;28;20509;-69
2023/12/05 07:00:03;;;;;;;0.80;0.80;;;;;;;-5.99;84.91;100691.03;5049953;28;20032;-70
2023/12/05 07:02:29;;;;;;;2.55;2.45;;;;;;;-5.90;84.80;100701.72;5067898;28;20018;-70
2023/12/05 07:04:57;;;;;;;1.88;1.70;;;;;;;-5.87;84.94;100701.03;5067955;28;20021;-71
2023/12/05 07:07:23;;;;;;;0.68;0.68;;;;;;;-5.83;84.89;100707.16;5049685;28;20036;-70
2023/12/05 07:09:48;;;;;;;1.58;1.02;;;;;;;-5.87;84.74;100699.38;5066403;28;20016;-70
2023/12/05 07:12:14;;;;;;;1.05;1.05;;;;;;;-5.87;84.96;100703.56;5049754;28;20021;-70
2023/12/05 07:14:39;;;;;;;0.63;0.63;;;;;;;-5.83;84.88;100704.63;5067441;28;20028;-69
2023/12/05 07:17:05;;;;;;;0.85;0.85;;;;;;;-5.86;84.96;100700.22;5067840;28;20056;-69
2023/12/05 07:19:30;;;;;;;0.75;0.75;;;;;;;-5.78;84.82;100704.13;5049753;28;20090;-69
2023/12/05 07:21:56;;;;;;;1.17;1.17;;;;;;;-5.74;84.91;100700.16;5067520;28;20025;-71
2023/12/05 07:24:21;;;;;;;0.70;0.70;;;;;;;-5.68;84.96;100705.59;5049456;28;20033;-70
2023/12/05 07:26:46;;;;;;;0.60;0.60;;;;;;;-5.69;84.86;100698.78;5067521;28;20043;-70
2023/12/05 07:29:12;;;;;;;0.60;0.60;;;;;;;-5.62;84.96;100705.06;5067568;28;20020;-70
2023/12/05 07:31:37;;;;;;;0.65;0.65;;;;;;;-5.63;84.77;100711.81;5067623;28;20032;-70
2023/12/05 07:34:03;;;;;;;0.63;0.63;;;;;;;-5.66;84.67;100708.22;5066252;28;20454;-70
2023/12/05 07:36:28;;;;;;;0.60;0.60;;;;;;;-5.61;85.19;100711.91;5067456;28;20017;-70
2023/12/05 07:38:53;;;;;;;0.60;0.60;;;;;;;-5.61;84.84;100710.22;5067122;28;20647;-70
2023/12/05 07:41:20;;;;;;;0.70;0.70;;;;;;;-5.59;84.93;100705.25;5067268;28;20225;-70
2023/12/05 07:43:46;;;;;;;1.50;1.48;;;;;;;-5.60;85.00;100717.06;5067191;28;20025;-69
2023/12/05 07:46:11;;;;;;;1.40;1.30;;;;;;;-5.54;84.80;100723.28;5066950;28;20083;-70
2023/12/05 07:48:36;;;;;;;0.60;0.60;;;;;;;-5.42;84.62;100720.63;5066951;28;20055;-70
2023/12/05 07:51:02;;;;;;;0.70;0.70;;;;;;;-5.42;84.69;100716.47;5049119;28;20029;-69
2023/12/05 07:53:27;;;;;;;0.70;0.70;;;;;;;-5.37;84.80;100726.84;5066782;28;20013;-69
2023/12/05 07:55:52;;;;;;;1.83;1.70;;;;;;;-5.40;84.99;100727.53;5048780;28;20025;-70
2023/12/05 07:58:18;;;;;;;0.80;0.80;;;;;;;-5.37;85.08;100730.25;5066685;28;20056;-71
2023/12/05 08:00:43;;;;;;;0.60;0.60;;;;;;;-5.24;84.79;100733.56;5066950;28;20107;-70
2023/12/05 08:03:13;;;;;;;0.98;0.98;;;;;;;-5.24;84.88;100743.69;5066457;28;20025;-69
2023/12/05 08:05:38;;;;;;;0.50;0.50;;;;;;;-5.25;85.01;100732.66;5066607;28;20024;-70
2023/12/05 08:08:04;;;;;;;1.48;1.48;;;;;;;-5.19;85.06;100742.28;5065636;28;20028;-70
2023/12/05 08:10:29;;;;;;;1.38;1.38;;;;;;;-5.12;84.85;100738.47;5066774;28;20017;-70
2023/12/05 08:12:54;;;;;;;0.60;0.60;;;;;;;-5.00;84.61;100733.28;5066644;28;20025;-70
2023/12/05 08:15:20;;;;;;;0.60;0.60;;;;;;;-5.04;84.79;100733.88;5048559;28;20053;-70
2023/12/05 08:17:45;;;;;;;0.68;0.68;;;;;;;-4.98;84.64;100732.59;5066740;28;20025;-69
2023/12/05 08:20:11;;;;;;;1.33;1.00;;;;;;;-4.93;84.53;100726.91;5066227;28;20020;-70
2023/12/05 08:22:36;;;;;;;0.77;0.77;;;;;;;-4.98;84.93;100736.78;5064679;28;20036;-69
2023/12/05 08:25:02;;;;;;;0.50;0.50;;;;;;;-4.93;84.98;100732.84;5048190;28;20484;-70
2023/12/05 08:27:27;;;;;;;0.68;0.68;;;;;;;-4.92;84.78;100738.81;5066378;28;20031;-69
2023/12/05 08:29:53;;;;;;;1.05;1.02;;;;;;;-4.91;84.81;100746.50;5066098;28;20025;-70
2023/12/05 08:32:18;;;;;;;1.05;1.05;;;;;;;-4.99;84.82;100727.44;5065538;28;20047;-70
2023/12/05 08:34:43;;;;;;;0.60;0.60;;;;;;;-4.93;84.86;100739.56;5065268;28;20076;-69
2023/12/05 08:39:34;;;;;;;1.45;1.35;;;;;;;-4.88;85.00;100745.78;5049161;22;20046;-66
2023/12/05 08:44:38;;;;;;;0.60;0.60;;;;;;;-4.90;84.93;100744.81;5051732;22;20061;-67
2023/12/05 08:47:03;;;;;;;0.68;0.68;;;;;;;-4.86;84.84;100749.31;5045843;28;20022;-67
2023/12/05 08:49:29;;;;;;;1.08;1.08;;;;;;;-4.85;85.03;100745.97;5045935;28;20049;-66
2023/12/05 08:51:55;;;;;;;0.63;0.63;;;;;;;-4.88;85.03;100743.25;5045891;28;20029;-66
2023/12/05 08:54:21;;;;;;;8.18;1.70;;;;;;;-4.80;85.13;100748.78;5046069;28;20117;-66
2023/12/05 08:56:46;;;;;;;0.75;0.75;;;;;;;-4.73;84.92;100750.91;5061626;28;20044;-67
2023/12/05 08:59:11;;;;;;;0.60;0.60;;;;;;;-4.76;84.90;100749.06;5065602;28;20021;-67
2023/12/05 09:01:37;;;;;;;0.75;0.75;;;;;;;-4.75;84.88;100745.75;5054154;23;20048;-69
2023/12/05 09:04:03;;;;;;;1.60;1.50;;;;;;;-4.70;84.86;100752.75;5065216;28;20021;-69
2023/12/05 09:06:28;;;;;;;0.80;0.80;;;;;;;-4.78;84.79;100747.22;5065144;28;20021;-69
2023/12/05 09:08:54;;;;;;;0.90;0.90;;;;;;;-4.80;84.35;100751.31;5065317;28;20063;-68
2023/12/05 09:11:19;;;;;;;3.92;2.08;;;;;;;-4.78;84.74;100748.13;5047407;28;20024;-69
2023/12/05 09:13:45;;;;;;;1.02;1.02;;;;;;;-4.71;84.57;100746.78;5047214;28;20017;-69
2023/12/05 09:16:10;;;;;;;0.80;0.80;;;;;;;-4.68;84.56;100756.25;5065428;28;20462;-69
2023/12/05 09:18:36;;;;;;;0.50;0.50;;;;;;;-4.67;84.87;100758.00;5065219;28;20107;-69
2023/12/05 09:21:02;;;;;;;0.60;0.60;;;;;;;-4.69;84.95;100744.34;5065082;28;20028;-69
2023/12/05 09:23:27;;;;;;;1.80;1.70;;;;;;;-4.61;84.58;100750.75;5047161;28;20029;-70
2023/12/05 09:25:53;;;;;;;0.75;0.75;;;;;;;-4.63;84.74;100762.44;5065258;28;20021;-69
2023/12/05 09:28:18;;;;;;;0.95;0.95;;;;;;;-4.55;84.73;100766.31;5065078;28;20017;-69
2023/12/05 09:30:43;;;;;;;0.60;0.60;;;;;;;-4.53;84.40;100767.28;5065133;28;20093;-70
2023/12/05 09:33:09;;;;;;;0.60;0.60;;;;;;;-4.69;84.28;100742.72;5065047;28;20071;-69
2023/12/05 09:35:34;;;;;;;0.60;0.60;;;;;;;-4.59;84.48;100766.94;5047141;28;20115;-69
2023/12/05 09:38:00;;;;;;;0.80;0.80;;;;;;;-4.53;84.51;100768.94;5064831;28;20032;-69
2023/12/05 09:40:25;;;;;;;1.23;1.13;;;;;;;-4.59;84.76;100761.88;5065030;28;20084;-70
2023/12/05 09:42:51;;;;;;;3.05;2.25;;;;;;;-4.46;85.31;100763.47;5046842;28;20021;-69
2023/12/05 09:45:18;;;;;;;1.02;0.98;;;;;;;-4.20;85.57;100770.84;5064993;28;20477;-70
2023/12/05 09:47:45;;;;;;;1.70;1.60;;;;;;;-3.92;85.73;100777.47;5047004;28;20021;-69
2023/12/05 09:50:11;;;;;;;3.83;3.63;;;;;;;-3.68;85.44;100767.84;5064809;28;20028;-69
2023/12/05 09:52:37;;;;;;;1.77;1.67;;;;;;;-3.59;84.86;100767.44;5064743;28;20032;-69
2023/12/05 09:55:03;;;;;;;2.22;2.08;;;;;;;-3.59;84.33;100770.00;5046697;28;20031;-69
2023/12/05 09:57:29;;;;;;;0.70;0.70;;;;;;;-3.66;83.70;100766.22;5046947;28;20021;-69
2023/12/05 09:59:55;;;;;;;0.55;0.55;;;;;;;-3.74;83.58;100767.50;5065020;28;20033;-69
2023/12/05 10:02:23;;;;;;;2.92;2.65;;;;;;;-3.84;83.46;100763.56;5064444;28;20095;-69
2023/12/05 10:04:57;;;;;;;0.90;0.90;;;;;;;-3.82;83.01;100764.53;5064776;28;20025;-68
2023/12/05 10:07:25;;;;;;;2.15;1.25;;;;;;;-3.89;83.74;100762.41;5047048;28;20021;-69
2023/12/05 10:09:51;;;;;;;2.10;2.00;;;;;;;-3.87;83.45;100760.84;5064397;28;20044;-69
2023/12/05 10:12:16;;;;;;;0.50;0.50;;;;;;;-3.89;83.57;100765.84;5064493;28;20025;-70
2023/12/05 10:14:42;;;;;;;0.75;0.75;;;;;;;-3.92;83.72;100763.13;5046898;28;20438;-70
2023/12/05 10:17:08;;;;;;;0.70;0.70;;;;;;;-3.89;83.56;100759.88;5064723;28;20052;-69
2023/12/05 10:19:34;;;;;;;0.60;0.60;;;;;;;-3.91;83.73;100762.34;5064843;28;20028;-69
2023/12/05 10:22:01;;;;;;;1.08;1.08;;;;;;;-3.90;83.65;100770.84;5064580;28;20032;-68
2023/12/05 10:24:45;;;;;;;1.13;1.02;;;;;;;-3.92;83.52;100759.72;5046477;28;20032;-69
2023/12/05 10:27:11;;;;;;;1.08;1.00;;;;;;;-3.95;83.60;100755.34;5064691;28;20029;-69
2023/12/05 10:29:41;;;;;;;1.92;1.00;;;;;;;-3.93;83.45;100760.50;5064812;28;20100;-69
2023/12/05 10:32:08;;;;;;;0.82;0.82;;;;;;;-3.98;83.81;100763.66;5050273;28;20126;-68
2023/12/05 10:34:49;;;;;;;1.70;1.60;;;;;;;-3.93;84.02;100758.81;5068595;28;20048;-68
2023/12/05 10:37:25;;;;;;;0.80;0.80;;;;;;;-3.96;83.85;100756.13;5068521;28;20016;-69
2023/12/05 10:39:52;;;;;;;2.92;1.98;;;;;;;-3.92;83.66;100758.06;5050280;28;20029;-69
2023/12/05 10:42:19;;;;;;;0.60;0.60;;;;;;;-3.95;83.97;100752.81;5068135;28;20055;-68
2023/12/05 10:44:44;;;;;;;0.77;0.77;;;;;;;-4.01;84.14;100745.72;5068361;28;20025;-69
2023/12/05 10:47:11;;;;;;;0.60;0.60;;;;;;;-3.95;84.27;100751.94;5068279;28;20091;-69
2023/12/05 10:49:37;;;;;;;0.70;0.70;;;;;;;-3.84;84.06;100748.34;5068363;28;20060;-68
2023/12/05 10:52:03;;;;;;;0.75;0.75;;;;;;;-3.89;83.77;100752.28;5068167;28;20024;-69
2023/12/05 10:54:29;;;;;;;1.73;1.45;;;;;;;-3.93;83.89;100747.84;5070241;22;20045;-66
2023/12/05 10:56:58;;;;;;;0.93;0.93;;;;;;;-3.91;84.06;100746.22;5047661;28;20048;-66
2023/12/05 10:59:28;;;;;;;0.57;0.57;;;;;;;-3.93;84.10;100746.16;5047977;28;20022;-66
2023/12/05 11:01:57;;;;;;;1.80;1.70;;;;;;;-3.92;83.99;100744.50;5030138;28;20017;-66
2023/12/05 11:04:26;;;;;;;0.50;0.50;;;;;;;-3.90;83.89;100745.47;5048140;28;20468;-66
2023/12/05 11:06:54;;;;;;;0.60;0.60;;;;;;;-3.96;83.95;100740.06;5047935;28;20100;-66
2023/12/05 11:09:22;;;;;;;0.70;0.70;;;;;;;-3.97;83.88;100749.31;5048043;28;20044;-67
2023/12/05 11:11:51;;;;;;;0.98;0.98;;;;;;;-3.95;84.23;100746.84;5048038;28;20021;-65
2023/12/05 11:14:19;;;;;;;0.60;0.60;;;;;;;-3.90;83.83;100740.38;5047849;28;20021;-66
2023/12/05 11:16:56;;;;;;;0.98;0.98;;;;;;;-3.95;84.13;100741.78;5047857;28;20025;-67
2023/12/05 11:19:52;;;;;;;0.55;0.55;;;;;;;-3.92;84.17;100737.75;5048045;28;20483;-65
2023/12/05 11:22:30;;;;;;;13.27;1.85;;;;;;;-3.93;84.08;100747.84;5059912;22;20075;-66
2023/12/05 11:25:07;;;;;;;0.80;0.80;;;;;;;-3.91;84.29;100748.75;5047086;28;20116;-66